createdAt,value
2018-09-11T00:01:01.467Z,3.73
2018-09-11T00:03:30.062Z,3.40
2018-09-11T00:05:59.328Z,3.17
2018-09-11T00:08:28.345Z,4.03
2018-09-11T00:10:56.686Z,3.50
2018-09-11T00:13:25.129Z,3.60
2018-09-11T00:15:53.985Z,4.13
2018-09-11T00:18:22.496Z,3.70
2018-09-11T00:20:50.914Z,4.33
2018-09-11T00:23:19.398Z,4.20
2018-09-11T00:25:47.842Z,4.13
2018-09-11T00:28:16.164Z,4.00
2018-09-11T00:30:44.595Z,3.90
2018-09-11T00:33:13.077Z,3.67
2018-09-11T00:35:41.530Z,4.00
2018-09-11T00:38:09.986Z,4.30
2018-09-11T00:40:38.510Z,4.80
2018-09-11T00:43:07.414Z,4.30
2018-09-11T00:45:36.014Z,4.67
2018-09-11T00:48:04.613Z,4.23
2018-09-11T00:50:33.485Z,4.57
2018-09-11T00:53:01.800Z,5.40
2018-09-11T00:55:30.797Z,4.77
2018-09-11T00:57:59.509Z,4.53
2018-09-11T01:00:27.827Z,4.03
2018-09-11T01:02:56.218Z,3.70
2018-09-11T01:05:24.626Z,4.20
2018-09-11T01:07:53.007Z,4.23
2018-09-11T01:10:21.856Z,4.13
2018-09-11T01:12:50.497Z,3.90
2018-09-11T01:15:19.547Z,4.40
2018-09-11T01:17:47.995Z,4.20
2018-09-11T01:20:16.491Z,4.33
2018-09-11T01:22:44.904Z,4.57
2018-09-11T01:25:13.434Z,3.90
2018-09-11T01:27:41.772Z,4.57
2018-09-11T01:30:10.082Z,4.43
2018-09-11T01:32:38.417Z,5.00
2018-09-11T01:35:06.845Z,4.67
2018-09-11T01:37:35.229Z,4.03
2018-09-11T01:40:03.713Z,4.70
2018-09-11T01:42:32.052Z,4.40
2018-09-11T01:45:00.469Z,4.43
2018-09-11T01:47:28.912Z,4.50
2018-09-11T01:49:58.220Z,4.40
2018-09-11T01:52:28.192Z,4.30
2018-09-11T01:54:56.652Z,4.37
2018-09-11T01:57:25.047Z,4.40
2018-09-11T01:59:53.497Z,4.03
2018-09-11T02:02:22.358Z,4.90
2018-09-11T02:04:51.237Z,4.50
2018-09-11T02:07:20.949Z,4.60
2018-09-11T02:12:16.412Z,4.07
2018-09-11T02:14:44.932Z,4.23
2018-09-11T02:17:13.329Z,4.27
2018-09-11T02:19:41.749Z,4.67
2018-09-11T02:22:10.233Z,5.00
2018-09-11T02:24:38.565Z,4.87
2018-09-11T02:27:07.887Z,4.67
2018-09-11T02:29:36.264Z,5.00
2018-09-11T02:32:04.822Z,5.03
2018-09-11T02:34:33.327Z,4.57
2018-09-11T02:37:01.614Z,4.80
2018-09-11T02:39:30.012Z,5.10
2018-09-11T02:41:58.372Z,5.80
2018-09-11T02:44:26.777Z,5.47
2018-09-11T02:46:55.215Z,5.20
2018-09-11T02:49:23.629Z,5.20
2018-09-11T02:51:52.023Z,4.50
2018-09-11T02:54:20.335Z,5.33
2018-09-11T02:56:49.347Z,5.37
2018-09-11T02:59:17.739Z,4.90
2018-09-11T03:01:46.178Z,4.90
2018-09-11T03:04:14.551Z,4.83
2018-09-11T03:06:43.035Z,5.63
2018-09-11T03:09:11.471Z,5.23
2018-09-11T03:11:39.803Z,4.87
2018-09-11T03:14:08.220Z,5.43
2018-09-11T03:16:36.561Z,5.40
2018-09-11T03:19:05.154Z,5.57
2018-09-11T03:21:33.493Z,5.00
2018-09-11T03:24:01.884Z,5.20
2018-09-11T03:26:30.253Z,4.57
2018-09-11T03:28:58.632Z,5.90
2018-09-11T03:31:27.126Z,4.53
2018-09-11T03:33:55.496Z,4.63
2018-09-11T03:36:24.103Z,4.87
2018-09-11T03:38:52.477Z,4.27
2018-09-11T03:41:20.849Z,5.00
2018-09-11T03:43:49.928Z,5.07
2018-09-11T03:46:18.807Z,4.83
2018-09-11T03:48:47.468Z,4.93
2018-09-11T03:51:17.820Z,5.20
2018-09-11T03:53:46.278Z,5.37
2018-09-11T03:56:14.622Z,4.43
2018-09-11T03:58:43.014Z,5.23
2018-09-11T04:01:11.595Z,4.90
2018-09-11T04:03:40.053Z,5.30
2018-09-11T04:06:08.497Z,5.60
2018-09-11T04:08:36.980Z,4.97
2018-09-11T04:11:05.354Z,5.20
2018-09-11T04:13:33.807Z,5.17
2018-09-11T04:16:02.238Z,5.40
2018-09-11T04:18:31.125Z,5.70
2018-09-11T04:20:59.496Z,5.10
2018-09-11T04:23:28.588Z,5.70
2018-09-11T04:25:57.055Z,5.90
2018-09-11T04:28:25.471Z,5.03
2018-09-11T04:30:53.952Z,5.83
2018-09-11T04:33:22.330Z,5.60
2018-09-11T04:35:50.704Z,5.23
2018-09-11T04:38:19.013Z,5.67
2018-09-11T04:40:47.348Z,5.33
2018-09-11T04:43:15.731Z,5.90
2018-09-11T04:45:44.118Z,5.97
2018-09-11T04:48:12.844Z,5.43
2018-09-11T04:50:41.162Z,5.07
2018-09-11T04:53:10.110Z,5.23
2018-09-11T04:55:39.549Z,5.40
2018-09-11T04:58:08.545Z,5.33
2018-09-11T05:00:36.978Z,5.20
2018-09-11T05:03:06.353Z,6.13
2018-09-11T05:05:34.757Z,5.60
2018-09-11T05:08:03.725Z,4.30
2018-09-11T05:10:32.214Z,4.53
2018-09-11T05:13:01.635Z,5.23
2018-09-11T05:15:30.008Z,5.13
2018-09-11T05:17:59.126Z,4.90
2018-09-11T05:20:27.501Z,5.30
2018-09-11T05:22:55.895Z,4.63
2018-09-11T05:25:24.431Z,5.03
2018-09-11T05:27:52.923Z,4.67
2018-09-11T05:30:21.263Z,5.53
2018-09-11T05:32:49.776Z,5.23
2018-09-11T05:35:18.350Z,4.80
2018-09-11T05:37:46.708Z,5.07
2018-09-11T05:40:15.891Z,4.93
2018-09-11T05:42:44.264Z,4.47
2018-09-11T05:45:12.708Z,5.50
2018-09-11T05:47:41.137Z,5.47
2018-09-11T05:50:10.907Z,5.53
2018-09-11T05:52:40.071Z,5.73
2018-09-11T05:55:09.149Z,5.60
2018-09-11T05:57:37.570Z,5.77
2018-09-11T06:00:06.916Z,5.23
2018-09-11T06:02:36.453Z,4.87
2018-09-11T06:05:05.397Z,4.73
2018-09-11T06:07:34.260Z,4.60
2018-09-11T06:10:02.850Z,4.33
2018-09-11T06:12:31.347Z,4.20
2018-09-11T06:14:59.823Z,3.97
2018-09-11T06:17:28.446Z,4.00
2018-09-11T06:19:57.444Z,4.40
2018-09-11T06:22:25.828Z,4.00
2018-09-11T06:24:54.210Z,3.80
2018-09-11T06:27:22.938Z,4.27
2018-09-11T06:29:51.229Z,4.30
2018-09-11T06:32:20.103Z,4.80
2018-09-11T06:34:48.884Z,4.00
2018-09-11T06:37:17.236Z,3.90
2018-09-11T06:39:45.896Z,4.53
2018-09-11T06:42:14.328Z,3.90
2018-09-11T06:44:42.751Z,4.43
2018-09-11T06:47:11.958Z,4.03
2018-09-11T06:49:40.359Z,4.30
2018-09-11T06:52:08.742Z,4.17
2018-09-11T06:54:37.242Z,3.97
2018-09-11T06:57:06.107Z,3.27
2018-09-11T06:59:35.036Z,4.00
2018-09-11T07:02:07.699Z,4.13
2018-09-11T07:04:36.198Z,4.00
2018-09-11T07:07:05.024Z,4.67
2018-09-11T07:09:34.014Z,3.80
2018-09-11T07:12:03.725Z,4.40
2018-09-11T07:14:32.115Z,4.47
2018-09-11T07:17:00.496Z,4.03
2018-09-11T07:19:29.528Z,3.90
2018-09-11T07:21:58.027Z,3.83
2018-09-11T07:24:26.725Z,4.17
2018-09-11T07:26:55.405Z,3.60
2018-09-11T07:29:24.319Z,3.60
2018-09-11T07:31:52.710Z,3.90
2018-09-11T07:34:21.068Z,3.90
2018-09-11T07:36:49.698Z,4.00
2018-09-11T07:39:18.119Z,4.30
2018-09-11T07:41:46.612Z,3.87
2018-09-11T07:44:15.065Z,4.03
2018-09-11T07:46:43.418Z,4.30
2018-09-11T07:49:11.837Z,4.00
2018-09-11T07:51:40.253Z,3.80
2018-09-11T07:54:09.404Z,3.70
2018-09-11T07:59:09.605Z,3.80
2018-09-11T08:01:38.096Z,3.03
2018-09-11T08:04:06.798Z,3.83
2018-09-11T08:06:35.296Z,3.47
2018-09-11T08:09:04.864Z,3.43
2018-09-11T08:11:33.847Z,3.53
2018-09-11T08:14:03.197Z,3.27
2018-09-11T08:16:32.314Z,3.70
2018-09-11T08:19:00.625Z,3.73
2018-09-11T08:21:29.070Z,3.30
2018-09-11T08:23:57.782Z,3.50
2018-09-11T08:26:26.284Z,3.33
2018-09-11T08:28:55.119Z,3.07
2018-09-11T08:31:23.544Z,3.90
2018-09-11T08:33:52.963Z,3.63
2018-09-11T08:36:21.453Z,3.07
2018-09-11T08:38:49.893Z,3.00
2018-09-11T08:41:18.481Z,3.80
2018-09-11T08:43:46.873Z,3.43
2018-09-11T08:46:15.257Z,3.63
2018-09-11T08:48:43.725Z,3.47
2018-09-11T08:51:12.343Z,3.77
2018-09-11T08:53:42.044Z,4.13
2018-09-11T08:56:10.754Z,3.57
2018-09-11T08:58:39.216Z,3.43
2018-09-11T09:01:08.206Z,4.20
2018-09-11T09:03:36.645Z,3.90
2018-09-11T09:06:05.522Z,3.73
2018-09-11T09:08:33.872Z,3.90
2018-09-11T09:11:02.483Z,3.60
2018-09-11T09:13:30.848Z,3.60
2018-09-11T09:15:59.188Z,3.93
2018-09-11T09:18:28.555Z,3.47
2018-09-11T09:20:57.037Z,4.03
2018-09-11T09:23:25.586Z,3.27
2018-09-11T09:25:53.996Z,3.83
2018-09-11T09:28:22.633Z,3.00
2018-09-11T09:30:51.073Z,3.27
2018-09-11T09:33:19.534Z,3.57
2018-09-11T09:35:48.650Z,3.10
2018-09-11T09:38:19.110Z,3.80
2018-09-11T09:40:48.476Z,3.23
2018-09-11T09:43:16.901Z,3.13
2018-09-11T09:45:45.239Z,3.00
2018-09-11T09:48:13.659Z,2.83
2018-09-11T09:50:42.559Z,2.87
2018-09-11T09:53:10.949Z,2.83
2018-09-11T09:55:39.244Z,3.40
2018-09-11T09:58:08.058Z,3.40
2018-09-11T10:00:41.596Z,3.10
2018-09-11T10:03:10.029Z,3.20
2018-09-11T10:05:38.762Z,3.67
2018-09-11T10:08:07.748Z,3.47
2018-09-11T10:10:36.299Z,3.60
2018-09-11T10:13:05.773Z,3.30
2018-09-11T10:15:34.257Z,3.50
2018-09-11T10:18:04.381Z,3.37
2018-09-11T10:20:32.912Z,3.40
2018-09-11T10:23:01.349Z,3.00
2018-09-11T10:25:30.700Z,3.20
2018-09-11T10:27:59.738Z,3.60
2018-09-11T10:30:28.164Z,3.53
2018-09-11T10:32:56.594Z,3.30
2018-09-11T10:35:25.945Z,3.40
2018-09-11T10:37:54.417Z,2.27
2018-09-11T10:40:22.876Z,2.90
2018-09-11T10:42:51.528Z,2.67
2018-09-11T10:45:19.880Z,2.80
2018-09-11T10:47:48.283Z,2.17
2018-09-11T10:50:17.072Z,2.30
2018-09-11T10:52:45.560Z,2.30
2018-09-11T10:55:14.606Z,2.70
2018-09-11T10:57:43.232Z,2.17
2018-09-11T11:00:11.673Z,2.70
2018-09-11T11:02:40.139Z,2.20
2018-09-11T11:05:08.641Z,2.17
2018-09-11T11:07:37.196Z,2.43
2018-09-11T11:10:09.067Z,2.60
2018-09-11T11:12:37.405Z,2.90
2018-09-11T11:17:35.128Z,2.20
2018-09-11T11:20:03.612Z,2.47
2018-09-11T11:22:32.163Z,2.83
2018-09-11T11:25:00.711Z,2.60
2018-09-11T11:27:29.101Z,2.37
2018-09-11T11:32:24.909Z,2.60
2018-09-11T11:34:53.262Z,3.87
2018-09-11T11:37:21.762Z,3.00
2018-09-11T11:39:50.650Z,2.40
2018-09-11T11:42:19.010Z,2.70
2018-09-11T11:44:47.342Z,3.20
2018-09-11T11:47:16.743Z,2.60
2018-09-11T11:49:45.108Z,2.50
2018-09-11T11:52:13.556Z,3.10
2018-09-11T11:54:42.115Z,2.80
2018-09-11T11:57:10.403Z,2.70
2018-09-11T11:59:38.798Z,3.13
2018-09-11T12:02:08.382Z,2.80
2018-09-11T12:04:36.786Z,2.70
2018-09-11T12:07:07.327Z,2.57
2018-09-11T12:09:35.694Z,2.77
2018-09-11T12:12:04.569Z,2.63
2018-09-11T12:14:33.029Z,2.30
2018-09-11T12:17:01.448Z,2.77
2018-09-11T12:19:29.952Z,2.53
2018-09-11T12:21:58.377Z,2.40
2018-09-11T12:24:26.723Z,2.60
2018-09-11T12:26:55.060Z,2.80
2018-09-11T12:29:23.374Z,2.57
2018-09-11T12:31:51.737Z,3.03
2018-09-11T12:34:20.131Z,2.60
2018-09-11T12:36:50.497Z,2.40
2018-09-11T12:39:18.937Z,2.40
2018-09-11T12:41:48.636Z,2.10
2018-09-11T12:44:16.989Z,2.07
2018-09-11T12:46:46.155Z,2.50
2018-09-11T12:49:14.459Z,2.23
2018-09-11T12:51:43.668Z,2.87
2018-09-11T12:54:12.034Z,2.10
2018-09-11T12:56:40.793Z,2.30
2018-09-11T12:59:09.283Z,2.07
2018-09-11T13:01:37.984Z,2.17
2018-09-11T13:04:08.387Z,2.23
2018-09-11T13:06:36.804Z,2.33
2018-09-11T13:09:07.559Z,2.33
2018-09-11T13:11:36.001Z,2.20
2018-09-11T13:14:05.217Z,2.10
2018-09-11T13:19:04.447Z,2.13
2018-09-11T13:21:32.926Z,2.00
2018-09-11T13:24:01.830Z,2.00
2018-09-11T13:26:30.235Z,2.00
2018-09-11T13:28:58.642Z,1.90
2018-09-11T13:31:27.125Z,2.07
2018-09-11T13:33:55.759Z,1.93
2018-09-11T13:36:24.214Z,2.07
2018-09-11T13:38:52.750Z,2.00
2018-09-11T13:41:21.159Z,1.87
2018-09-11T13:43:49.914Z,1.90
2018-09-11T13:46:18.595Z,2.13
2018-09-11T13:48:47.201Z,2.27
2018-09-11T13:51:15.635Z,2.30
2018-09-11T13:53:44.025Z,2.20
2018-09-11T13:56:12.421Z,2.07
2018-09-11T13:58:41.039Z,1.87
2018-09-11T14:01:09.561Z,2.40
2018-09-11T14:03:38.695Z,2.20
2018-09-11T14:06:07.586Z,2.20
2018-09-11T14:08:35.961Z,2.13
2018-09-11T14:11:04.632Z,2.47
2018-09-11T14:13:34.071Z,1.90
2018-09-11T14:16:02.405Z,2.10
2018-09-11T14:18:30.860Z,2.20
2018-09-11T14:20:59.821Z,2.13
2018-09-11T14:23:28.604Z,2.63
2018-09-11T14:25:56.917Z,2.13
2018-09-11T14:28:26.084Z,2.27
2018-09-11T14:30:54.538Z,2.33
2018-09-11T14:33:22.915Z,2.77
2018-09-11T14:35:52.105Z,2.53
2018-09-11T14:38:20.484Z,2.03
2018-09-11T14:40:49.132Z,2.23
2018-09-11T14:43:17.656Z,2.40
2018-09-11T14:45:46.180Z,2.80
2018-09-11T14:48:14.789Z,2.40
2018-09-11T14:50:43.281Z,2.40
2018-09-11T14:53:11.683Z,2.63
2018-09-11T14:55:40.205Z,2.57
2018-09-11T14:58:08.733Z,2.30
2018-09-11T15:00:38.118Z,2.50
2018-09-11T15:03:07.013Z,3.47
2018-09-11T15:05:35.617Z,2.67
2018-09-11T15:08:04.381Z,2.87
2018-09-11T15:10:32.996Z,2.67
2018-09-11T15:13:01.600Z,2.43
2018-09-11T15:15:30.093Z,2.67
2018-09-11T15:17:59.437Z,2.63
2018-09-11T15:20:27.841Z,2.60
2018-09-11T15:22:56.283Z,2.77
2018-09-11T15:25:25.800Z,2.53
2018-09-11T15:27:54.414Z,2.67
2018-09-11T15:30:22.840Z,2.70
2018-09-11T15:32:51.237Z,2.30
2018-09-11T15:35:19.721Z,2.47
2018-09-11T15:37:48.873Z,2.60
2018-09-11T15:40:17.840Z,2.40
2018-09-11T15:42:46.436Z,2.60
2018-09-11T15:45:14.825Z,2.40
2018-09-11T15:47:43.406Z,2.90
2018-09-11T15:50:11.830Z,3.03
2018-09-11T15:52:40.372Z,2.33
2018-09-11T15:55:08.785Z,2.43
2018-09-11T15:57:37.268Z,2.87
2018-09-11T16:00:06.319Z,2.90
2018-09-11T16:02:34.748Z,2.60
2018-09-11T16:05:03.349Z,2.90
2018-09-11T16:07:31.831Z,2.80
2018-09-11T16:10:00.361Z,2.90
2018-09-11T16:12:28.853Z,2.70
2018-09-11T16:14:57.317Z,2.70
2018-09-11T16:17:26.910Z,2.57
2018-09-11T16:19:55.439Z,2.40
2018-09-11T16:22:23.895Z,2.80
2018-09-11T16:24:52.261Z,2.90
2018-09-11T16:27:21.575Z,2.83
2018-09-11T16:29:50.133Z,3.00
2018-09-11T16:32:19.258Z,3.43
2018-09-11T16:34:47.653Z,2.80
2018-09-11T16:37:16.108Z,2.90
2018-09-11T16:39:44.557Z,3.23
2018-09-11T16:42:12.987Z,2.70
2018-09-11T16:44:41.415Z,2.73
2018-09-11T16:47:09.889Z,2.70
2018-09-11T16:49:38.390Z,2.57
2018-09-11T16:52:06.815Z,2.67
2018-09-11T16:54:35.226Z,2.80
2018-09-11T16:57:04.612Z,3.77
2018-09-11T16:59:32.911Z,3.13
2018-09-11T17:02:01.835Z,3.23
2018-09-11T17:04:30.280Z,3.80
2018-09-11T17:06:58.656Z,3.13
2018-09-11T17:09:27.118Z,3.37
2018-09-11T17:11:57.330Z,3.50
2018-09-11T17:14:25.908Z,3.70
2018-09-11T17:16:54.351Z,3.40
2018-09-11T17:19:23.564Z,3.30
2018-09-11T17:21:51.971Z,3.03
2018-09-11T17:24:20.443Z,3.50
2018-09-11T17:26:48.811Z,3.17
2018-09-11T17:29:17.161Z,3.70
2018-09-11T17:31:45.679Z,3.47
2018-09-11T17:34:14.078Z,2.97
2018-09-11T17:36:42.478Z,3.57
2018-09-11T17:39:12.114Z,4.07
2018-09-11T17:41:41.274Z,4.73
2018-09-11T17:46:37.132Z,6.07
2018-09-11T17:49:05.823Z,5.97
2018-09-11T17:51:34.247Z,5.13
2018-09-11T17:54:03.465Z,5.20
2018-09-11T17:56:32.004Z,6.50
2018-09-11T17:59:03.435Z,5.67
2018-09-11T18:01:32.566Z,5.93
2018-09-11T18:04:01.965Z,5.90
2018-09-11T18:06:30.452Z,5.83
2018-09-11T18:08:59.080Z,6.57
2018-09-11T18:11:27.620Z,5.60
2018-09-11T18:13:56.009Z,5.40
2018-09-11T18:16:24.361Z,5.40
2018-09-11T18:18:53.305Z,5.67
2018-09-11T18:21:21.747Z,6.27
2018-09-11T18:23:50.250Z,5.70
2018-09-11T18:26:18.737Z,5.50
2018-09-11T18:28:47.113Z,5.20
2018-09-11T18:31:15.580Z,6.73
2018-09-11T18:33:44.086Z,6.43
2018-09-11T18:36:12.659Z,5.40
2018-09-11T18:38:41.006Z,6.20
2018-09-11T18:41:09.351Z,6.53
2018-09-11T18:43:37.680Z,6.03
2018-09-11T18:46:06.180Z,6.63
2018-09-11T18:48:35.110Z,6.10
2018-09-11T18:51:03.662Z,6.50
2018-09-11T18:53:32.103Z,6.33
2018-09-11T18:56:00.687Z,6.67
2018-09-11T18:58:30.469Z,5.97
2018-09-11T19:00:59.045Z,5.70
2018-09-11T19:03:27.394Z,6.00
2018-09-11T19:05:55.846Z,5.17
2018-09-11T19:08:24.840Z,5.73
2018-09-11T19:10:53.762Z,5.67
2018-09-11T19:13:22.070Z,6.17
2018-09-11T19:18:17.782Z,5.90
2018-09-11T19:20:46.423Z,6.63
2018-09-11T19:23:14.852Z,5.97
2018-09-11T19:25:43.328Z,6.10
2018-09-11T19:28:11.718Z,6.53
2018-09-11T19:33:07.370Z,6.20
2018-09-11T19:35:36.797Z,5.60
2018-09-11T19:38:07.310Z,6.07
2018-09-11T19:40:35.901Z,5.67
2018-09-11T19:43:04.311Z,6.17
2018-09-11T19:45:33.937Z,6.40
2018-09-11T19:48:02.422Z,5.23
2018-09-11T19:50:32.143Z,6.27
2018-09-11T19:53:00.679Z,5.90
2018-09-11T19:55:29.188Z,5.67
2018-09-11T19:58:02.213Z,5.57
2018-09-11T20:00:32.602Z,5.70
2018-09-11T20:03:01.213Z,5.00
2018-09-11T20:05:29.569Z,5.37
2018-09-11T20:07:58.122Z,6.10
2018-09-11T20:10:26.557Z,5.17
2018-09-11T20:12:55.278Z,5.57
2018-09-11T20:15:26.905Z,5.50
2018-09-11T20:17:55.518Z,5.10
2018-09-11T20:20:23.924Z,5.50
2018-09-11T20:22:52.520Z,5.40
2018-09-11T20:25:21.247Z,5.30
2018-09-11T20:27:50.253Z,4.97
2018-09-11T20:30:19.590Z,5.33
2018-09-11T20:32:48.026Z,5.20
2018-09-11T20:35:16.494Z,5.13
2018-09-11T20:37:45.406Z,5.37
2018-09-11T20:40:13.845Z,4.87
2018-09-11T20:42:42.399Z,5.17
2018-09-11T20:45:10.851Z,6.03
2018-09-11T20:47:39.219Z,5.10
2018-09-11T20:50:08.170Z,4.67
2018-09-11T20:52:36.685Z,5.20
2018-09-11T20:55:05.464Z,5.10
2018-09-11T20:57:34.064Z,4.80
2018-09-11T21:00:02.467Z,4.90
2018-09-11T21:02:30.957Z,5.20
2018-09-11T21:04:59.338Z,5.13
2018-09-11T21:07:27.920Z,4.87
2018-09-11T21:09:56.321Z,4.97
2018-09-11T21:12:25.303Z,5.10
2018-09-11T21:14:54.512Z,5.17
2018-09-11T21:17:23.005Z,5.00
2018-09-11T21:19:51.393Z,5.00
2018-09-11T21:22:19.811Z,5.17
2018-09-11T21:24:48.240Z,4.90
2018-09-11T21:27:16.616Z,4.83
2018-09-11T21:29:44.972Z,5.40
2018-09-11T21:32:14.340Z,4.73
2018-09-11T21:34:42.877Z,5.13
2018-09-11T21:37:12.289Z,4.83
2018-09-11T21:39:40.655Z,5.30
2018-09-11T21:42:09.231Z,4.70
2018-09-11T21:44:39.313Z,4.77
2018-09-11T21:47:07.749Z,5.13
2018-09-11T21:49:36.298Z,5.13
2018-09-11T21:52:04.746Z,4.67
2018-09-11T21:54:33.417Z,4.77
2018-09-11T21:57:01.818Z,5.10
2018-09-11T21:59:30.286Z,5.07
2018-09-11T22:02:02.496Z,5.70
2018-09-11T22:04:31.269Z,5.07
2018-09-11T22:06:59.752Z,5.00
2018-09-11T22:09:28.197Z,6.27
2018-09-11T22:11:56.788Z,5.63
2018-09-11T22:14:25.059Z,6.03
2018-09-11T22:16:53.651Z,6.30
2018-09-11T22:19:22.234Z,5.40
2018-09-11T22:21:52.144Z,5.37
2018-09-11T22:24:20.766Z,5.90
2018-09-11T22:26:49.143Z,6.83
2018-09-11T22:29:17.553Z,5.90
2018-09-11T22:31:46.483Z,5.33
2018-09-11T22:34:14.824Z,6.50
2018-09-11T22:36:43.354Z,6.33
2018-09-11T22:39:12.145Z,6.27
2018-09-11T22:41:40.590Z,6.23
2018-09-11T22:44:09.991Z,6.67
2018-09-11T22:46:38.619Z,6.43
2018-09-11T22:49:07.095Z,6.13
2018-09-11T22:51:35.505Z,6.33
2018-09-11T22:54:04.800Z,6.00
2018-09-11T22:56:33.187Z,6.30
2018-09-11T22:59:02.054Z,5.40
2018-09-11T23:01:30.504Z,5.67
2018-09-11T23:03:59.067Z,5.73
2018-09-11T23:06:27.402Z,6.63
2018-09-11T23:08:56.381Z,5.67
2018-09-11T23:11:25.830Z,5.60
2018-09-11T23:13:54.249Z,6.37
2018-09-11T23:16:23.245Z,6.27
2018-09-11T23:18:51.828Z,5.77
2018-09-11T23:21:20.615Z,6.50
2018-09-11T23:23:49.006Z,8.27
2018-09-11T23:26:18.194Z,9.40
2018-09-11T23:28:47.250Z,10.97
2018-09-11T23:31:15.665Z,11.33
2018-09-11T23:33:44.077Z,12.30
2018-09-11T23:36:12.507Z,12.83
2018-09-11T23:38:40.813Z,13.40
2018-09-11T23:41:09.371Z,14.50
2018-09-11T23:43:37.874Z,13.07
2018-09-11T23:46:06.378Z,12.80
2018-09-11T23:48:34.741Z,12.40
2018-09-11T23:51:03.201Z,12.93
2018-09-11T23:53:31.503Z,13.70
2018-09-11T23:56:00.049Z,14.50
2018-09-11T23:58:29.348Z,13.83
